sensor_id;sensor_type;location;lat;lon;timestamp;pressure;altitude;pressure_sealevel;temperature
33877;BMP180;20166;51.738;7.158;2023-11-18T00:01:14;101857.00;;;2.20
33877;BMP180;20166;51.738;7.158;2023-11-18T00:04:02;101870.00;;;2.20
33877;BMP180;20166;51.738;7.158;2023-11-18T00:06:49;101869.00;;;2.20
33877;BMP180;20166;51.738;7.158;2023-11-18T00:09:35;101864.00;;;2.20
33877;BMP180;20166;51.738;7.158;2023-11-18T00:12:22;101876.00;;;2.10
33877;BMP180;20166;51.738;7.158;2023-11-18T00:15:09;101862.00;;;2.10
33877;BMP180;20166;51.738;7.158;2023-11-18T00:17:57;101856.00;;;2.10
33877;BMP180;20166;51.738;7.158;2023-11-18T00:20:45;101857.00;;;2.10
33877;BMP180;20166;51.738;7.158;2023-11-18T00:23:31;101865.00;;;2.00
33877;BMP180;20166;51.738;7.158;2023-11-18T00:26:17;101862.00;;;2.00
33877;BMP180;20166;51.738;7.158;2023-11-18T00:29:04;101861.00;;;2.00
33877;BMP180;20166;51.738;7.158;2023-11-18T00:31:50;101863.00;;;1.90
33877;BMP180;20166;51.738;7.158;2023-11-18T00:34:36;101858.00;;;2.00
33877;BMP180;20166;51.738;7.158;2023-11-18T00:37:24;101850.00;;;1.80
33877;BMP180;20166;51.738;7.158;2023-11-18T00:40:10;101843.00;;;1.80
33877;BMP180;20166;51.738;7.158;2023-11-18T00:42:56;101847.00;;;1.80
33877;BMP180;20166;51.738;7.158;2023-11-18T00:45:43;101848.00;;;1.80
33877;BMP180;20166;51.738;7.158;2023-11-18T00:48:29;101851.00;;;1.80
33877;BMP180;20166;51.738;7.158;2023-11-18T00:51:16;101848.00;;;1.80
33877;BMP180;20166;51.738;7.158;2023-11-18T00:54:05;101837.00;;;1.80
33877;BMP180;20166;51.738;7.158;2023-11-18T00:56:51;101846.00;;;1.90
33877;BMP180;20166;51.738;7.158;2023-11-18T00:59:41;101836.00;;;1.90
33877;BMP180;20166;51.738;7.158;2023-11-18T01:02:27;101838.00;;;1.90
33877;BMP180;20166;51.738;7.158;2023-11-18T01:05:14;101828.00;;;2.00
33877;BMP180;20166;51.738;7.158;2023-11-18T01:08:00;101830.00;;;1.80
33877;BMP180;20166;51.738;7.158;2023-11-18T01:10:48;101840.00;;;1.90
33877;BMP180;20166;51.738;7.158;2023-11-18T01:13:34;101831.00;;;1.90
33877;BMP180;20166;51.738;7.158;2023-11-18T01:16:20;101831.00;;;1.90
33877;BMP180;20166;51.738;7.158;2023-11-18T01:19:07;101832.00;;;1.90
33877;BMP180;20166;51.738;7.158;2023-11-18T01:21:54;101838.00;;;1.90
33877;BMP180;20166;51.738;7.158;2023-11-18T01:24:41;101837.00;;;2.00
33877;BMP180;20166;51.738;7.158;2023-11-18T01:27:28;101851.00;;;2.00
33877;BMP180;20166;51.738;7.158;2023-11-18T01:30:15;101856.00;;;2.00
33877;BMP180;20166;51.738;7.158;2023-11-18T01:33:01;101869.00;;;2.00
33877;BMP180;20166;51.738;7.158;2023-11-18T01:35:49;101875.00;;;1.90
33877;BMP180;20166;51.738;7.158;2023-11-18T01:38:36;101873.00;;;1.90
33877;BMP180;20166;51.738;7.158;2023-11-18T01:41:22;101870.00;;;2.00
33877;BMP180;20166;51.738;7.158;2023-11-18T01:44:09;101870.00;;;2.00
33877;BMP180;20166;51.738;7.158;2023-11-18T01:46:58;101865.00;;;2.00
33877;BMP180;20166;51.738;7.158;2023-11-18T01:49:45;101873.00;;;2.00
33877;BMP180;20166;51.738;7.158;2023-11-18T01:52:32;101878.00;;;1.90
33877;BMP180;20166;51.738;7.158;2023-11-18T01:55:18;101874.00;;;1.90
33877;BMP180;20166;51.738;7.158;2023-11-18T01:58:06;101874.00;;;1.90
33877;BMP180;20166;51.738;7.158;2023-11-18T02:00:57;101870.00;;;1.90
33877;BMP180;20166;51.738;7.158;2023-11-18T02:03:44;101860.00;;;1.80
33877;BMP180;20166;51.738;7.158;2023-11-18T02:06:32;101864.00;;;1.80
33877;BMP180;20166;51.738;7.158;2023-11-18T02:09:19;101863.00;;;1.70
33877;BMP180;20166;51.738;7.158;2023-11-18T02:12:19;101880.00;;;1.80
33877;BMP180;20166;51.738;7.158;2023-11-18T02:15:09;101861.00;;;1.90
33877;BMP180;20166;51.738;7.158;2023-11-18T02:18:02;101857.00;;;1.90
33877;BMP180;20166;51.738;7.158;2023-11-18T02:20:49;101856.00;;;1.90
33877;BMP180;20166;51.738;7.158;2023-11-18T02:23:35;101851.00;;;1.90
33877;BMP180;20166;51.738;7.158;2023-11-18T02:26:24;101841.00;;;1.90
33877;BMP180;20166;51.738;7.158;2023-11-18T02:29:10;101838.00;;;1.90
33877;BMP180;20166;51.738;7.158;2023-11-18T02:32:01;101829.00;;;1.90
33877;BMP180;20166;51.738;7.158;2023-11-18T02:34:55;101832.00;;;1.80
33877;BMP180;20166;51.738;7.158;2023-11-18T02:37:47;101828.00;;;1.90
33877;BMP180;20166;51.738;7.158;2023-11-18T02:40:36;101846.00;;;1.90
33877;BMP180;20166;51.738;7.158;2023-11-18T02:43:24;101833.00;;;2.00
33877;BMP180;20166;51.738;7.158;2023-11-18T02:46:13;101836.00;;;1.90
33877;BMP180;20166;51.738;7.158;2023-11-18T02:49:00;101839.00;;;1.90
33877;BMP180;20166;51.738;7.158;2023-11-18T02:51:46;101833.00;;;2.00
33877;BMP180;20166;51.738;7.158;2023-11-18T02:54:33;101847.00;;;2.00
33877;BMP180;20166;51.738;7.158;2023-11-18T02:57:19;101846.00;;;2.00
33877;BMP180;20166;51.738;7.158;2023-11-18T03:00:08;101859.00;;;2.00
33877;BMP180;20166;51.738;7.158;2023-11-18T03:03:02;101845.00;;;2.00
33877;BMP180;20166;51.738;7.158;2023-11-18T03:05:48;101843.00;;;2.00
33877;BMP180;20166;51.738;7.158;2023-11-18T03:08:35;101832.00;;;2.00
33877;BMP180;20166;51.738;7.158;2023-11-18T03:11:21;101825.00;;;2.00
33877;BMP180;20166;51.738;7.158;2023-11-18T03:14:07;101827.00;;;2.10
33877;BMP180;20166;51.738;7.158;2023-11-18T03:16:57;101816.00;;;2.10
33877;BMP180;20166;51.738;7.158;2023-11-18T03:19:45;101823.00;;;2.10
33877;BMP180;20166;51.738;7.158;2023-11-18T03:22:31;101805.00;;;2.00
33877;BMP180;20166;51.738;7.158;2023-11-18T03:25:18;101805.00;;;2.00
33877;BMP180;20166;51.738;7.158;2023-11-18T03:28:06;101803.00;;;2.00
33877;BMP180;20166;51.738;7.158;2023-11-18T03:30:53;101798.00;;;2.00
33877;BMP180;20166;51.738;7.158;2023-11-18T03:33:41;101790.00;;;1.90
33877;BMP180;20166;51.738;7.158;2023-11-18T03:36:27;101798.00;;;1.90
33877;BMP180;20166;51.738;7.158;2023-11-18T03:39:13;101795.00;;;1.90
33877;BMP180;20166;51.738;7.158;2023-11-18T03:42:00;101798.00;;;1.90
33877;BMP180;20166;51.738;7.158;2023-11-18T03:44:47;101806.00;;;1.90
33877;BMP180;20166;51.738;7.158;2023-11-18T03:47:33;101800.00;;;1.90
33877;BMP180;20166;51.738;7.158;2023-11-18T03:50:21;101807.00;;;1.90
33877;BMP180;20166;51.738;7.158;2023-11-18T03:53:07;101796.00;;;1.80
33877;BMP180;20166;51.738;7.158;2023-11-18T03:55:54;101815.00;;;1.90
33877;BMP180;20166;51.738;7.158;2023-11-18T03:58:40;101808.00;;;1.90
33877;BMP180;20166;51.738;7.158;2023-11-18T04:01:27;101807.00;;;1.90
33877;BMP180;20166;51.738;7.158;2023-11-18T04:04:14;101805.00;;;1.90
33877;BMP180;20166;51.738;7.158;2023-11-18T04:07:03;101804.00;;;1.90
33877;BMP180;20166;51.738;7.158;2023-11-18T04:09:50;101818.00;;;1.90
33877;BMP180;20166;51.738;7.158;2023-11-18T04:12:36;101816.00;;;1.80
33877;BMP180;20166;51.738;7.158;2023-11-18T04:15:23;101794.00;;;1.80
33877;BMP180;20166;51.738;7.158;2023-11-18T04:18:09;101811.00;;;1.80
33877;BMP180;20166;51.738;7.158;2023-11-18T04:20:55;101813.00;;;1.80
33877;BMP180;20166;51.738;7.158;2023-11-18T04:23:44;101801.00;;;1.80
33877;BMP180;20166;51.738;7.158;2023-11-18T04:26:31;101792.00;;;1.70
33877;BMP180;20166;51.738;7.158;2023-11-18T04:29:18;101801.00;;;1.80
33877;BMP180;20166;51.738;7.158;2023-11-18T04:32:04;101809.00;;;1.80
33877;BMP180;20166;51.738;7.158;2023-11-18T04:34:51;101795.00;;;1.70
33877;BMP180;20166;51.738;7.158;2023-11-18T04:37:38;101787.00;;;1.70
33877;BMP180;20166;51.738;7.158;2023-11-18T04:40:28;101779.00;;;1.70
33877;BMP180;20166;51.738;7.158;2023-11-18T04:43:15;101767.00;;;1.70
33877;BMP180;20166;51.738;7.158;2023-11-18T04:46:09;101758.00;;;1.70
33877;BMP180;20166;51.738;7.158;2023-11-18T04:48:56;101751.00;;;1.70
33877;BMP180;20166;51.738;7.158;2023-11-18T04:51:42;101742.00;;;1.70
33877;BMP180;20166;51.738;7.158;2023-11-18T04:54:28;101748.00;;;1.70
33877;BMP180;20166;51.738;7.158;2023-11-18T04:57:16;101752.00;;;1.70
33877;BMP180;20166;51.738;7.158;2023-11-18T05:00:03;101756.00;;;1.70
33877;BMP180;20166;51.738;7.158;2023-11-18T05:02:56;101736.00;;;1.70
33877;BMP180;20166;51.738;7.158;2023-11-18T05:05:44;101738.00;;;1.70
33877;BMP180;20166;51.738;7.158;2023-11-18T05:08:30;101729.00;;;1.70
33877;BMP180;20166;51.738;7.158;2023-11-18T05:11:18;101732.00;;;1.80
33877;BMP180;20166;51.738;7.158;2023-11-18T05:14:06;101725.00;;;1.70
33877;BMP180;20166;51.738;7.158;2023-11-18T05:16:53;101725.00;;;1.80
33877;BMP180;20166;51.738;7.158;2023-11-18T05:19:39;101705.00;;;1.80
33877;BMP180;20166;51.738;7.158;2023-11-18T05:22:26;101706.00;;;1.80
33877;BMP180;20166;51.738;7.158;2023-11-18T05:25:12;101696.00;;;1.80
33877;BMP180;20166;51.738;7.158;2023-11-18T05:27:59;101691.00;;;1.90
33877;BMP180;20166;51.738;7.158;2023-11-18T05:30:47;101702.00;;;1.90
33877;BMP180;20166;51.738;7.158;2023-11-18T05:33:33;101706.00;;;1.80
33877;BMP180;20166;51.738;7.158;2023-11-18T05:36:20;101705.00;;;1.80
33877;BMP180;20166;51.738;7.158;2023-11-18T05:39:12;101711.00;;;1.80
33877;BMP180;20166;51.738;7.158;2023-11-18T05:41:59;101710.00;;;1.80
33877;BMP180;20166;51.738;7.158;2023-11-18T05:44:46;101711.00;;;1.90
33877;BMP180;20166;51.738;7.158;2023-11-18T05:47:33;101710.00;;;1.80
33877;BMP180;20166;51.738;7.158;2023-11-18T05:50:20;101706.00;;;1.90
33877;BMP180;20166;51.738;7.158;2023-11-18T05:53:06;101714.00;;;1.90
33877;BMP180;20166;51.738;7.158;2023-11-18T05:55:54;101718.00;;;1.90
33877;BMP180;20166;51.738;7.158;2023-11-18T05:58:40;101714.00;;;2.00
33877;BMP180;20166;51.738;7.158;2023-11-18T06:01:29;101719.00;;;2.00
33877;BMP180;20166;51.738;7.158;2023-11-18T06:04:17;101706.00;;;2.00
33877;BMP180;20166;51.738;7.158;2023-11-18T06:07:03;101704.00;;;2.10
33877;BMP180;20166;51.738;7.158;2023-11-18T06:09:49;101703.00;;;2.10
33877;BMP180;20166;51.738;7.158;2023-11-18T06:12:35;101703.00;;;2.00
33877;BMP180;20166;51.738;7.158;2023-11-18T06:15:25;101698.00;;;2.10
33877;BMP180;20166;51.738;7.158;2023-11-18T06:18:12;101697.00;;;2.10
33877;BMP180;20166;51.738;7.158;2023-11-18T06:21:00;101695.00;;;2.10
33877;BMP180;20166;51.738;7.158;2023-11-18T06:23:47;101702.00;;;2.20
33877;BMP180;20166;51.738;7.158;2023-11-18T06:26:33;101680.00;;;2.20
33877;BMP180;20166;51.738;7.158;2023-11-18T06:29:21;101673.00;;;2.20
33877;BMP180;20166;51.738;7.158;2023-11-18T06:32:08;101687.00;;;2.20
33877;BMP180;20166;51.738;7.158;2023-11-18T06:34:57;101675.00;;;2.20
33877;BMP180;20166;51.738;7.158;2023-11-18T06:37:45;101677.00;;;2.10
33877;BMP180;20166;51.738;7.158;2023-11-18T06:40:32;101681.00;;;2.20
33877;BMP180;20166;51.738;7.158;2023-11-18T06:43:20;101675.00;;;2.20
33877;BMP180;20166;51.738;7.158;2023-11-18T06:46:07;101682.00;;;2.30
33877;BMP180;20166;51.738;7.158;2023-11-18T06:48:58;101683.00;;;2.30
33877;BMP180;20166;51.738;7.158;2023-11-18T06:51:45;101680.00;;;2.30
33877;BMP180;20166;51.738;7.158;2023-11-18T06:54:32;101675.00;;;2.40
33877;BMP180;20166;51.738;7.158;2023-11-18T06:57:19;101676.00;;;2.40
33877;BMP180;20166;51.738;7.158;2023-11-18T07:00:07;101677.00;;;2.40
33877;BMP180;20166;51.738;7.158;2023-11-18T07:02:54;101680.00;;;2.30
33877;BMP180;20166;51.738;7.158;2023-11-18T07:05:40;101679.00;;;2.30
33877;BMP180;20166;51.738;7.158;2023-11-18T07:08:27;101689.00;;;2.40
33877;BMP180;20166;51.738;7.158;2023-11-18T07:11:15;101682.00;;;2.40
33877;BMP180;20166;51.738;7.158;2023-11-18T07:14:02;101677.00;;;2.30
33877;BMP180;20166;51.738;7.158;2023-11-18T07:16:49;101685.00;;;2.40
33877;BMP180;20166;51.738;7.158;2023-11-18T07:19:35;101694.00;;;2.40
33877;BMP180;20166;51.738;7.158;2023-11-18T07:22:22;101696.00;;;2.40
33877;BMP180;20166;51.738;7.158;2023-11-18T07:25:10;101700.00;;;2.40
33877;BMP180;20166;51.738;7.158;2023-11-18T07:27:58;101690.00;;;2.40
33877;BMP180;20166;51.738;7.158;2023-11-18T07:30:45;101703.00;;;2.40
33877;BMP180;20166;51.738;7.158;2023-11-18T07:33:32;101712.00;;;2.40
33877;BMP180;20166;51.738;7.158;2023-11-18T07:36:19;101702.00;;;2.50
33877;BMP180;20166;51.738;7.158;2023-11-18T07:39:05;101698.00;;;2.60
33877;BMP180;20166;51.738;7.158;2023-11-18T07:42:01;101696.00;;;2.70
33877;BMP180;20166;51.738;7.158;2023-11-18T07:44:48;101688.00;;;2.60
33877;BMP180;20166;51.738;7.158;2023-11-18T07:47:35;101688.00;;;2.60
33877;BMP180;20166;51.738;7.158;2023-11-18T07:50:22;101680.00;;;2.70
33877;BMP180;20166;51.738;7.158;2023-11-18T07:53:08;101684.00;;;2.70
33877;BMP180;20166;51.738;7.158;2023-11-18T07:55:55;101680.00;;;2.70
33877;BMP180;20166;51.738;7.158;2023-11-18T07:58:41;101670.00;;;2.80
33877;BMP180;20166;51.738;7.158;2023-11-18T08:01:32;101666.00;;;2.90
33877;BMP180;20166;51.738;7.158;2023-11-18T08:04:18;101673.00;;;2.90
33877;BMP180;20166;51.738;7.158;2023-11-18T08:07:06;101688.00;;;2.90
33877;BMP180;20166;51.738;7.158;2023-11-18T08:09:55;101689.00;;;2.90
33877;BMP180;20166;51.738;7.158;2023-11-18T08:12:42;101693.00;;;2.90
33877;BMP180;20166;51.738;7.158;2023-11-18T08:15:29;101687.00;;;3.00
33877;BMP180;20166;51.738;7.158;2023-11-18T08:18:18;101688.00;;;3.10
33877;BMP180;20166;51.738;7.158;2023-11-18T08:21:06;101698.00;;;3.20
33877;BMP180;20166;51.738;7.158;2023-11-18T08:23:53;101697.00;;;3.30
33877;BMP180;20166;51.738;7.158;2023-11-18T08:26:39;101696.00;;;3.30
33877;BMP180;20166;51.738;7.158;2023-11-18T08:29:25;101694.00;;;3.30
33877;BMP180;20166;51.738;7.158;2023-11-18T08:32:16;101694.00;;;3.40
33877;BMP180;20166;51.738;7.158;2023-11-18T08:35:05;101684.00;;;3.40
33877;BMP180;20166;51.738;7.158;2023-11-18T08:37:52;101678.00;;;3.50
33877;BMP180;20166;51.738;7.158;2023-11-18T08:40:38;101673.00;;;3.60
33877;BMP180;20166;51.738;7.158;2023-11-18T08:43:25;101672.00;;;3.60
33877;BMP180;20166;51.738;7.158;2023-11-18T08:46:13;101671.00;;;3.70
33877;BMP180;20166;51.738;7.158;2023-11-18T08:49:00;101666.00;;;3.60
33877;BMP180;20166;51.738;7.158;2023-11-18T08:51:56;101666.00;;;3.60
33877;BMP180;20166;51.738;7.158;2023-11-18T08:54:43;101668.00;;;3.70
33877;BMP180;20166;51.738;7.158;2023-11-18T08:57:45;101660.00;;;3.80
33877;BMP180;20166;51.738;7.158;2023-11-18T09:00:37;101658.00;;;3.80
33877;BMP180;20166;51.738;7.158;2023-11-18T09:03:34;101655.00;;;3.80
33877;BMP180;20166;51.738;7.158;2023-11-18T09:06:21;101642.00;;;3.90
33877;BMP180;20166;51.738;7.158;2023-11-18T09:09:14;101625.00;;;3.90
33877;BMP180;20166;51.738;7.158;2023-11-18T09:12:00;101639.00;;;3.90
33877;BMP180;20166;51.738;7.158;2023-11-18T09:14:47;101643.00;;;4.00
33877;BMP180;20166;51.738;7.158;2023-11-18T09:17:37;101646.00;;;4.10
33877;BMP180;20166;51.738;7.158;2023-11-18T09:20:23;101628.00;;;4.20
33877;BMP180;20166;51.738;7.158;2023-11-18T09:23:10;101621.00;;;4.20
33877;BMP180;20166;51.738;7.158;2023-11-18T09:25:57;101616.00;;;4.20
33877;BMP180;20166;51.738;7.158;2023-11-18T09:28:44;101617.00;;;4.20
33877;BMP180;20166;51.738;7.158;2023-11-18T09:31:31;101605.00;;;4.20
33877;BMP180;20166;51.738;7.158;2023-11-18T09:34:18;101597.00;;;4.30
33877;BMP180;20166;51.738;7.158;2023-11-18T09:37:11;101604.00;;;4.30
33877;BMP180;20166;51.738;7.158;2023-11-18T09:39:58;101599.00;;;4.40
33877;BMP180;20166;51.738;7.158;2023-11-18T09:42:46;101600.00;;;4.50
33877;BMP180;20166;51.738;7.158;2023-11-18T09:45:32;101601.00;;;4.50
33877;BMP180;20166;51.738;7.158;2023-11-18T09:48:18;101598.00;;;4.50
33877;BMP180;20166;51.738;7.158;2023-11-18T09:51:10;101600.00;;;4.50
33877;BMP180;20166;51.738;7.158;2023-11-18T09:54:00;101615.00;;;4.50
33877;BMP180;20166;51.738;7.158;2023-11-18T09:56:51;101608.00;;;4.60
33877;BMP180;20166;51.738;7.158;2023-11-18T09:59:49;101596.00;;;4.60
33877;BMP180;20166;51.738;7.158;2023-11-18T10:02:43;101604.00;;;4.60
33877;BMP180;20166;51.738;7.158;2023-11-18T10:05:31;101597.00;;;4.60
33877;BMP180;20166;51.738;7.158;2023-11-18T10:08:19;101602.00;;;4.70
33877;BMP180;20166;51.738;7.158;2023-11-18T10:11:11;101591.00;;;4.70
33877;BMP180;20166;51.738;7.158;2023-11-18T10:13:58;101575.00;;;4.70
33877;BMP180;20166;51.738;7.158;2023-11-18T10:16:52;101560.00;;;4.70
33877;BMP180;20166;51.738;7.158;2023-11-18T10:19:55;101557.00;;;4.80
33877;BMP180;20166;51.738;7.158;2023-11-18T10:22:43;101555.00;;;4.90
33877;BMP180;20166;51.738;7.158;2023-11-18T10:25:30;101557.00;;;5.00
33877;BMP180;20166;51.738;7.158;2023-11-18T10:28:23;101552.00;;;5.00
33877;BMP180;20166;51.738;7.158;2023-11-18T10:31:18;101544.00;;;5.00
33877;BMP180;20166;51.738;7.158;2023-11-18T10:34:06;101533.00;;;5.10
33877;BMP180;20166;51.738;7.158;2023-11-18T10:37:00;101532.00;;;5.10
33877;BMP180;20166;51.738;7.158;2023-11-18T10:39:48;101533.00;;;5.20
33877;BMP180;20166;51.738;7.158;2023-11-18T10:42:36;101540.00;;;5.20
33877;BMP180;20166;51.738;7.158;2023-11-18T10:45:23;101553.00;;;5.30
33877;BMP180;20166;51.738;7.158;2023-11-18T10:48:12;101536.00;;;5.30
33877;BMP180;20166;51.738;7.158;2023-11-18T10:51:03;101502.00;;;5.30
33877;BMP180;20166;51.738;7.158;2023-11-18T10:53:53;101505.00;;;5.40
33877;BMP180;20166;51.738;7.158;2023-11-18T10:56:47;101488.00;;;5.40
33877;BMP180;20166;51.738;7.158;2023-11-18T10:59:33;101464.00;;;5.50
33877;BMP180;20166;51.738;7.158;2023-11-18T11:02:20;101462.00;;;5.50
33877;BMP180;20166;51.738;7.158;2023-11-18T11:05:09;101454.00;;;5.60
33877;BMP180;20166;51.738;7.158;2023-11-18T11:08:07;101462.00;;;5.60
33877;BMP180;20166;51.738;7.158;2023-11-18T11:10:54;101466.00;;;5.70
33877;BMP180;20166;51.738;7.158;2023-11-18T11:13:44;101481.00;;;5.70
33877;BMP180;20166;51.738;7.158;2023-11-18T11:16:37;101473.00;;;5.70
33877;BMP180;20166;51.738;7.158;2023-11-18T11:19:33;101471.00;;;5.70
33877;BMP180;20166;51.738;7.158;2023-11-18T11:22:37;101465.00;;;5.70
33877;BMP180;20166;51.738;7.158;2023-11-18T11:25:32;101469.00;;;5.70
33877;BMP180;20166;51.738;7.158;2023-11-18T11:28:21;101456.00;;;5.80
33877;BMP180;20166;51.738;7.158;2023-11-18T11:31:12;101447.00;;;5.80
33877;BMP180;20166;51.738;7.158;2023-11-18T11:34:02;101453.00;;;6.00
33877;BMP180;20166;51.738;7.158;2023-11-18T11:36:53;101452.00;;;6.00
33877;BMP180;20166;51.738;7.158;2023-11-18T11:39:40;101440.00;;;6.00
33877;BMP180;20166;51.738;7.158;2023-11-18T11:42:33;101437.00;;;6.00
33877;BMP180;20166;51.738;7.158;2023-11-18T11:45:19;101439.00;;;6.00
33877;BMP180;20166;51.738;7.158;2023-11-18T11:48:07;101444.00;;;6.10
33877;BMP180;20166;51.738;7.158;2023-11-18T11:51:16;101438.00;;;6.10
33877;BMP180;20166;51.738;7.158;2023-11-18T11:54:10;101435.00;;;6.10
33877;BMP180;20166;51.738;7.158;2023-11-18T11:57:00;101436.00;;;6.10
33877;BMP180;20166;51.738;7.158;2023-11-18T11:59:57;101443.00;;;6.10
33877;BMP180;20166;51.738;7.158;2023-11-18T12:02:48;101458.00;;;6.10
33877;BMP180;20166;51.738;7.158;2023-11-18T12:05:37;101454.00;;;6.10
33877;BMP180;20166;51.738;7.158;2023-11-18T12:08:29;101439.00;;;6.10
33877;BMP180;20166;51.738;7.158;2023-11-18T12:11:17;101441.00;;;6.20
33877;BMP180;20166;51.738;7.158;2023-11-18T12:14:06;101432.00;;;6.30
33877;BMP180;20166;51.738;7.158;2023-11-18T12:17:03;101430.00;;;6.30
33877;BMP180;20166;51.738;7.158;2023-11-18T12:19:55;101417.00;;;6.40
33877;BMP180;20166;51.738;7.158;2023-11-18T12:23:03;101406.00;;;6.40
33877;BMP180;20166;51.738;7.158;2023-11-18T12:25:59;101388.00;;;6.40
33877;BMP180;20166;51.738;7.158;2023-11-18T12:28:48;101382.00;;;6.50
33877;BMP180;20166;51.738;7.158;2023-11-18T12:31:40;101365.00;;;6.50
33877;BMP180;20166;51.738;7.158;2023-11-18T12:34:52;101345.00;;;6.50
33877;BMP180;20166;51.738;7.158;2023-11-18T12:38:10;101355.00;;;6.60
33877;BMP180;20166;51.738;7.158;2023-11-18T12:41:01;101337.00;;;6.60
33877;BMP180;20166;51.738;7.158;2023-11-18T12:44:14;101327.00;;;6.60
33877;BMP180;20166;51.738;7.158;2023-11-18T12:47:03;101331.00;;;6.70
33877;BMP180;20166;51.738;7.158;2023-11-18T12:50:00;101320.00;;;6.70
33877;BMP180;20166;51.738;7.158;2023-11-18T12:52:47;101309.00;;;6.70
33877;BMP180;20166;51.738;7.158;2023-11-18T12:55:34;101301.00;;;6.80
33877;BMP180;20166;51.738;7.158;2023-11-18T12:58:21;101305.00;;;6.80
33877;BMP180;20166;51.738;7.158;2023-11-18T13:01:08;101307.00;;;6.90
33877;BMP180;20166;51.738;7.158;2023-11-18T13:03:59;101309.00;;;6.90
33877;BMP180;20166;51.738;7.158;2023-11-18T13:06:48;101309.00;;;6.90
33877;BMP180;20166;51.738;7.158;2023-11-18T13:09:37;101300.00;;;6.90
33877;BMP180;20166;51.738;7.158;2023-11-18T13:12:26;101277.00;;;6.90
33877;BMP180;20166;51.738;7.158;2023-11-18T13:15:13;101266.00;;;7.00
33877;BMP180;20166;51.738;7.158;2023-11-18T13:18:02;101257.00;;;7.00
33877;BMP180;20166;51.738;7.158;2023-11-18T13:20:54;101270.00;;;7.10
33877;BMP180;20166;51.738;7.158;2023-11-18T13:23:46;101266.00;;;7.10
33877;BMP180;20166;51.738;7.158;2023-11-18T13:26:33;101248.00;;;7.20
33877;BMP180;20166;51.738;7.158;2023-11-18T13:29:20;101226.00;;;7.20
33877;BMP180;20166;51.738;7.158;2023-11-18T13:32:07;101221.00;;;7.20
33877;BMP180;20166;51.738;7.158;2023-11-18T13:34:55;101217.00;;;7.20
33877;BMP180;20166;51.738;7.158;2023-11-18T13:37:42;101215.00;;;7.30
33877;BMP180;20166;51.738;7.158;2023-11-18T13:40:43;101210.00;;;7.30
33877;BMP180;20166;51.738;7.158;2023-11-18T13:43:41;101194.00;;;7.30
33877;BMP180;20166;51.738;7.158;2023-11-18T13:46:27;101174.00;;;7.30
33877;BMP180;20166;51.738;7.158;2023-11-18T13:49:13;101172.00;;;7.40
33877;BMP180;20166;51.738;7.158;2023-11-18T13:52:00;101156.00;;;7.40
33877;BMP180;20166;51.738;7.158;2023-11-18T13:54:47;101164.00;;;7.40
33877;BMP180;20166;51.738;7.158;2023-11-18T13:57:41;101162.00;;;7.40
33877;BMP180;20166;51.738;7.158;2023-11-18T14:00:28;101159.00;;;7.40
33877;BMP180;20166;51.738;7.158;2023-11-18T14:03:17;101158.00;;;7.40
33877;BMP180;20166;51.738;7.158;2023-11-18T14:06:05;101140.00;;;7.40
33877;BMP180;20166;51.738;7.158;2023-11-18T14:08:52;101125.00;;;7.40
33877;BMP180;20166;51.738;7.158;2023-11-18T14:11:38;101118.00;;;7.40
33877;BMP180;20166;51.738;7.158;2023-11-18T14:14:26;101107.00;;;7.50
33877;BMP180;20166;51.738;7.158;2023-11-18T14:17:12;101104.00;;;7.40
33877;BMP180;20166;51.738;7.158;2023-11-18T14:19:59;101109.00;;;7.50
33877;BMP180;20166;51.738;7.158;2023-11-18T14:22:45;101115.00;;;7.50
33877;BMP180;20166;51.738;7.158;2023-11-18T14:25:31;101104.00;;;7.50
33877;BMP180;20166;51.738;7.158;2023-11-18T14:28:19;101093.00;;;7.60
33877;BMP180;20166;51.738;7.158;2023-11-18T14:31:11;101080.00;;;7.60
33877;BMP180;20166;51.738;7.158;2023-11-18T14:33:58;101080.00;;;7.60
33877;BMP180;20166;51.738;7.158;2023-11-18T14:36:44;101074.00;;;7.50
33877;BMP180;20166;51.738;7.158;2023-11-18T14:39:31;101067.00;;;7.50
33877;BMP180;20166;51.738;7.158;2023-11-18T14:42:19;101068.00;;;7.50
33877;BMP180;20166;51.738;7.158;2023-11-18T14:45:07;101054.00;;;7.50
33877;BMP180;20166;51.738;7.158;2023-11-18T14:47:55;101043.00;;;7.50
33877;BMP180;20166;51.738;7.158;2023-11-18T14:50:42;101040.00;;;7.50
33877;BMP180;20166;51.738;7.158;2023-11-18T14:53:30;101043.00;;;7.50
33877;BMP180;20166;51.738;7.158;2023-11-18T14:56:16;101030.00;;;7.50
33877;BMP180;20166;51.738;7.158;2023-11-18T14:59:03;101030.00;;;7.50
33877;BMP180;20166;51.738;7.158;2023-11-18T15:01:51;101022.00;;;7.40
33877;BMP180;20166;51.738;7.158;2023-11-18T15:04:43;100999.00;;;7.40
33877;BMP180;20166;51.738;7.158;2023-11-18T15:07:29;100978.00;;;7.40
33877;BMP180;20166;51.738;7.158;2023-11-18T15:10:17;100965.00;;;7.40
33877;BMP180;20166;51.738;7.158;2023-11-18T15:13:06;100952.00;;;7.40
33877;BMP180;20166;51.738;7.158;2023-11-18T15:15:57;100976.00;;;7.40
33877;BMP180;20166;51.738;7.158;2023-11-18T15:18:43;100996.00;;;7.40
33877;BMP180;20166;51.738;7.158;2023-11-18T15:21:33;100990.00;;;7.40
33877;BMP180;20166;51.738;7.158;2023-11-18T15:24:20;100977.00;;;7.30
33877;BMP180;20166;51.738;7.158;2023-11-18T15:27:08;100966.00;;;7.40
33877;BMP180;20166;51.738;7.158;2023-11-18T15:29:56;100957.00;;;7.40
33877;BMP180;20166;51.738;7.158;2023-11-18T15:32:45;100960.00;;;7.40
33877;BMP180;20166;51.738;7.158;2023-11-18T15:35:31;100946.00;;;7.40
33877;BMP180;20166;51.738;7.158;2023-11-18T15:38:19;100937.00;;;7.30
33877;BMP180;20166;51.738;7.158;2023-11-18T15:41:09;100922.00;;;7.40
33877;BMP180;20166;51.738;7.158;2023-11-18T15:43:56;100911.00;;;7.40
33877;BMP180;20166;51.738;7.158;2023-11-18T15:46:47;100919.00;;;7.40
33877;BMP180;20166;51.738;7.158;2023-11-18T15:49:34;100917.00;;;7.40
33877;BMP180;20166;51.738;7.158;2023-11-18T15:52:20;100909.00;;;7.40
33877;BMP180;20166;51.738;7.158;2023-11-18T15:55:08;100898.00;;;7.40
33877;BMP180;20166;51.738;7.158;2023-11-18T15:57:58;100884.00;;;7.40
33877;BMP180;20166;51.738;7.158;2023-11-18T16:00:45;100866.00;;;7.40
33877;BMP180;20166;51.738;7.158;2023-11-18T16:03:31;100870.00;;;7.40
33877;BMP180;20166;51.738;7.158;2023-11-18T16:06:18;100891.00;;;7.40
33877;BMP180;20166;51.738;7.158;2023-11-18T16:09:04;100872.00;;;7.40
33877;BMP180;20166;51.738;7.158;2023-11-18T16:11:53;100843.00;;;7.50